sensor_id;sensor_type;location;lat;lon;timestamp;P1;durP1;ratioP1;P2;durP2;ratioP2
75504;SDS011;64085;54.974;73.410;2023-05-24T18:37:34;21.35;;;8.38;;
75504;SDS011;64085;54.974;73.410;2023-05-24T18:40:18;18.13;;;8.18;;
75504;SDS011;64085;54.974;73.410;2023-05-24T18:42:45;18.70;;;9.32;;
75504;SDS011;64085;54.974;73.410;2023-05-24T18:45:11;14.93;;;8.25;;
75504;SDS011;64085;54.974;73.410;2023-05-24T18:47:37;11.52;;;5.07;;
75504;SDS011;64085;54.974;73.410;2023-05-24T18:50:20;10.77;;;5.30;;
75504;SDS011;64085;54.974;73.410;2023-05-24T18:55:50;11.27;;;5.95;;
75504;SDS011;64085;54.974;73.410;2023-05-24T18:58:15;13.50;;;5.95;;
75504;SDS011;64085;54.974;73.410;2023-05-24T19:00:42;14.68;;;7.68;;
75504;SDS011;64085;54.974;73.410;2023-05-24T19:03:08;15.45;;;6.85;;
75504;SDS011;64085;54.974;73.410;2023-05-24T19:05:35;18.05;;;7.50;;
75504;SDS011;64085;54.974;73.410;2023-05-24T19:08:00;28.88;;;11.23;;
75504;SDS011;64085;54.974;73.410;2023-05-24T19:10:25;29.35;;;11.43;;
75504;SDS011;64085;54.974;73.410;2023-05-24T19:12:51;12.93;;;7.10;;
75504;SDS011;64085;54.974;73.410;2023-05-24T19:15:17;20.05;;;7.07;;
75504;SDS011;64085;54.974;73.410;2023-05-24T19:17:42;11.43;;;5.70;;
75504;SDS011;64085;54.974;73.410;2023-05-24T19:20:08;14.20;;;6.47;;
75504;SDS011;64085;54.974;73.410;2023-05-24T19:22:33;8.32;;;4.40;;
75504;SDS011;64085;54.974;73.410;2023-05-24T19:27:45;6.70;;;3.47;;
75504;SDS011;64085;54.974;73.410;2023-05-24T19:30:13;8.02;;;3.50;;
75504;SDS011;64085;54.974;73.410;2023-05-24T19:32:38;6.95;;;3.35;;
75504;SDS011;64085;54.974;73.410;2023-05-24T19:35:04;4.15;;;2.60;;
75504;SDS011;64085;54.974;73.410;2023-05-24T19:37:30;3.05;;;1.92;;
75504;SDS011;64085;54.974;73.410;2023-05-24T19:40:14;3.28;;;2.38;;
75504;SDS011;64085;54.974;73.410;2023-05-24T19:42:39;6.32;;;1.88;;
75504;SDS011;64085;54.974;73.410;2023-05-24T19:45:05;5.70;;;2.70;;
75504;SDS011;64085;54.974;73.410;2023-05-24T19:47:32;8.43;;;3.58;;
75504;SDS011;64085;54.974;73.410;2023-05-24T19:49:58;9.55;;;6.55;;
75504;SDS011;64085;54.974;73.410;2023-05-24T19:52:23;20.73;;;13.18;;
75504;SDS011;64085;54.974;73.410;2023-05-24T19:57:34;10.50;;;5.32;;
75504;SDS011;64085;54.974;73.410;2023-05-24T20:05:28;6.85;;;4.00;;
75504;SDS011;64085;54.974;73.410;2023-05-24T20:07:54;6.57;;;4.15;;
75504;SDS011;64085;54.974;73.410;2023-05-24T20:10:19;8.18;;;4.65;;
75504;SDS011;64085;54.974;73.410;2023-05-24T20:13:03;9.15;;;5.65;;
75504;SDS011;64085;54.974;73.410;2023-05-24T20:15:30;8.25;;;5.47;;
75504;SDS011;64085;54.974;73.410;2023-05-24T20:17:56;7.97;;;3.92;;
75504;SDS011;64085;54.974;73.410;2023-05-24T20:20:22;5.88;;;4.38;;
75504;SDS011;64085;54.974;73.410;2023-05-24T20:22:47;4.95;;;3.55;;
75504;SDS011;64085;54.974;73.410;2023-05-24T20:27:57;5.00;;;3.05;;
75504;SDS011;64085;54.974;73.410;2023-05-24T20:30:22;6.43;;;3.60;;
75504;SDS011;64085;54.974;73.410;2023-05-24T20:32:53;4.95;;;3.80;;
75504;SDS011;64085;54.974;73.410;2023-05-24T20:35:38;6.93;;;3.28;;
75504;SDS011;64085;54.974;73.410;2023-05-24T20:38:03;4.82;;;2.63;;
75504;SDS011;64085;54.974;73.410;2023-05-24T20:40:29;4.18;;;2.17;;
75504;SDS011;64085;54.974;73.410;2023-05-24T20:42:55;3.65;;;2.38;;
75504;SDS011;64085;54.974;73.410;2023-05-24T20:45:38;3.10;;;2.53;;
75504;SDS011;64085;54.974;73.410;2023-05-24T20:48:05;3.40;;;2.60;;
75504;SDS011;64085;54.974;73.410;2023-05-24T20:50:31;3.38;;;2.30;;
75504;SDS011;64085;54.974;73.410;2023-05-24T20:52:56;4.95;;;2.63;;
75504;SDS011;64085;54.974;73.410;2023-05-24T20:55:21;3.55;;;2.30;;
75504;SDS011;64085;54.974;73.410;2023-05-24T20:57:47;3.00;;;2.53;;
75504;SDS011;64085;54.974;73.410;2023-05-24T21:00:12;3.58;;;2.63;;
75504;SDS011;64085;54.974;73.410;2023-05-24T21:02:38;5.57;;;2.70;;
75504;SDS011;64085;54.974;73.410;2023-05-24T21:05:04;3.50;;;2.60;;
75504;SDS011;64085;54.974;73.410;2023-05-24T21:10:15;5.78;;;2.83;;
75504;SDS011;64085;54.974;73.410;2023-05-24T21:12:41;6.50;;;2.90;;
75504;SDS011;64085;54.974;73.410;2023-05-24T21:15:06;5.57;;;2.83;;
75504;SDS011;64085;54.974;73.410;2023-05-24T21:20:16;4.53;;;2.88;;
75504;SDS011;64085;54.974;73.410;2023-05-24T21:22:41;3.47;;;2.03;;
75504;SDS011;64085;54.974;73.410;2023-05-24T21:25:07;2.75;;;2.17;;
75504;SDS011;64085;54.974;73.410;2023-05-24T21:27:51;2.88;;;2.03;;
75504;SDS011;64085;54.974;73.410;2023-05-24T21:30:16;3.60;;;2.92;;
75504;SDS011;64085;54.974;73.410;2023-05-24T21:33:00;3.88;;;2.63;;
75504;SDS011;64085;54.974;73.410;2023-05-24T21:35:44;6.13;;;3.92;;
75504;SDS011;64085;54.974;73.410;2023-05-24T21:38:28;9.57;;;4.90;;
75504;SDS011;64085;54.974;73.410;2023-05-24T21:40:53;6.97;;;4.43;;
75504;SDS011;64085;54.974;73.410;2023-05-24T21:46:03;6.63;;;4.50;;
75504;SDS011;64085;54.974;73.410;2023-05-24T21:51:12;7.45;;;4.72;;
75504;SDS011;64085;54.974;73.410;2023-05-24T21:53:39;6.20;;;4.15;;
75504;SDS011;64085;54.974;73.410;2023-05-24T21:56:05;7.53;;;4.22;;
75504;SDS011;64085;54.974;73.410;2023-05-24T21:58:30;6.07;;;4.10;;
75504;SDS011;64085;54.974;73.410;2023-05-24T22:00:56;6.32;;;4.00;;
75504;SDS011;64085;54.974;73.410;2023-05-24T22:03:21;8.07;;;4.18;;
75504;SDS011;64085;54.974;73.410;2023-05-24T22:06:05;8.00;;;5.00;;
75504;SDS011;64085;54.974;73.410;2023-05-24T22:08:31;10.32;;;5.32;;
75504;SDS011;64085;54.974;73.410;2023-05-24T22:13:49;8.98;;;7.10;;
75504;SDS011;64085;54.974;73.410;2023-05-24T22:16:15;11.13;;;7.50;;
75504;SDS011;64085;54.974;73.410;2023-05-24T22:21:43;11.20;;;6.55;;
75504;SDS011;64085;54.974;73.410;2023-05-24T22:24:09;10.70;;;6.32;;
75504;SDS011;64085;54.974;73.410;2023-05-24T22:26:35;8.02;;;4.70;;
75504;SDS011;64085;54.974;73.410;2023-05-24T22:29:01;7.68;;;3.67;;
75504;SDS011;64085;54.974;73.410;2023-05-24T22:31:29;6.78;;;3.67;;
75504;SDS011;64085;54.974;73.410;2023-05-24T22:33:57;6.53;;;4.40;;
75504;SDS011;64085;54.974;73.410;2023-05-24T22:36:29;9.25;;;4.57;;
75504;SDS011;64085;54.974;73.410;2023-05-24T22:41:41;10.13;;;4.97;;
75504;SDS011;64085;54.974;73.410;2023-05-24T22:44:25;8.65;;;4.38;;
75504;SDS011;64085;54.974;73.410;2023-05-24T22:49:53;14.32;;;4.55;;
75504;SDS011;64085;54.974;73.410;2023-05-24T22:52:19;9.70;;;4.22;;
75504;SDS011;64085;54.974;73.410;2023-05-24T23:00:12;9.15;;;3.58;;
75504;SDS011;64085;54.974;73.410;2023-05-24T23:02:39;5.38;;;3.50;;
75504;SDS011;64085;54.974;73.410;2023-05-24T23:05:04;7.13;;;3.60;;
75504;SDS011;64085;54.974;73.410;2023-05-24T23:07:30;6.00;;;3.53;;
75504;SDS011;64085;54.974;73.410;2023-05-24T23:09:56;6.80;;;3.28;;
75504;SDS011;64085;54.974;73.410;2023-05-24T23:12:23;4.38;;;3.10;;
75504;SDS011;64085;54.974;73.410;2023-05-24T23:14:49;10.27;;;4.05;;
75504;SDS011;64085;54.974;73.410;2023-05-24T23:17:14;5.20;;;2.95;;
75504;SDS011;64085;54.974;73.410;2023-05-24T23:19:41;6.75;;;3.90;;
75504;SDS011;64085;54.974;73.410;2023-05-24T23:22:07;7.45;;;4.10;;
75504;SDS011;64085;54.974;73.410;2023-05-24T23:24:51;4.72;;;3.25;;
75504;SDS011;64085;54.974;73.410;2023-05-24T23:27:17;3.80;;;2.85;;
75504;SDS011;64085;54.974;73.410;2023-05-24T23:29:42;8.77;;;3.13;;
75504;SDS011;64085;54.974;73.410;2023-05-24T23:32:08;3.28;;;1.90;;
75504;SDS011;64085;54.974;73.410;2023-05-24T23:34:34;5.80;;;2.83;;
75504;SDS011;64085;54.974;73.410;2023-05-24T23:37:00;10.50;;;4.68;;
75504;SDS011;64085;54.974;73.410;2023-05-24T23:39:25;9.98;;;4.85;;
75504;SDS011;64085;54.974;73.410;2023-05-24T23:41:51;4.38;;;3.72;;
75504;SDS011;64085;54.974;73.410;2023-05-24T23:44:34;7.45;;;5.22;;
75504;SDS011;64085;54.974;73.410;2023-05-24T23:47:18;8.55;;;4.45;;
75504;SDS011;64085;54.974;73.410;2023-05-24T23:52:28;6.25;;;3.97;;
75504;SDS011;64085;54.974;73.410;2023-05-24T23:54:54;6.20;;;3.78;;
